Time;durP1;ratioP1;P1;durP2;ratioP2;P2;SDS_P1;SDS_P2;PMS_P1;PMS_P2;Temp;Humidity;BMP_temperature;BMP_pressure;BME280_temperature;BME280_humidity;BME280_pressure;Samples;Min_cycle;Max_cycle;Signal;HPM_P1;HPM_P2
2024/01/26 00:01:39;;;;;;;90.90;45.95;;;8.80;99.90;;;;;;4833384;29;20142;-74
2024/01/26 00:04:05;;;;;;;97.68;47.75;;;8.80;99.90;;;;;;4841707;29;20053;-75
2024/01/26 00:06:30;;;;;;;89.10;45.65;;;8.80;99.90;;;;;;4833209;29;20046;-74
2024/01/26 00:08:56;;;;;;;90.45;46.35;;;8.70;99.90;;;;;;4833422;29;20046;-75
2024/01/26 00:11:23;;;;;;;100.68;49.50;;;8.80;99.90;;;;;;4838540;29;20446;-75
2024/01/26 00:13:49;;;;;;;84.97;46.40;;;8.80;99.90;;;;;;4838441;29;20069;-75
2024/01/26 00:16:14;;;;;;;86.50;46.25;;;8.90;99.90;;;;;;4842364;29;20050;-75
2024/01/26 00:18:40;;;;;;;105.32;49.00;;;8.90;99.90;;;;;;4837920;29;20046;-75
2024/01/26 00:21:06;;;;;;;101.25;50.35;;;8.90;99.90;;;;;;4844938;29;20908;-75
2024/01/26 00:23:32;;;;;;;89.82;45.78;;;8.80;99.90;;;;;;4839423;29;20080;-75
2024/01/26 00:25:58;;;;;;;79.15;43.67;;;8.90;99.90;;;;;;4828616;29;20070;-75
2024/01/26 00:28:23;;;;;;;98.35;47.03;;;8.90;99.90;;;;;;4844837;29;20049;-75
2024/01/26 00:30:49;;;;;;;95.47;46.78;;;8.90;99.90;;;;;;4826765;29;20451;-75
2024/01/26 00:33:14;;;;;;;83.35;45.55;;;8.90;99.90;;;;;;4836079;29;20064;-75
2024/01/26 00:35:40;;;;;;;87.78;43.50;;;8.90;99.90;;;;;;4840203;29;20186;-75
2024/01/26 00:38:06;;;;;;;83.60;44.08;;;8.90;99.90;;;;;;4843575;29;20128;-75
2024/01/26 00:40:31;;;;;;;78.20;44.50;;;8.90;99.90;;;;;;4846911;29;20050;-75
2024/01/26 00:42:57;;;;;;;79.65;44.25;;;8.90;99.90;;;;;;4855242;29;20133;-75
2024/01/26 00:45:23;;;;;;;95.70;46.28;;;8.90;99.90;;;;;;4857859;29;20060;-75
2024/01/26 00:47:48;;;;;;;82.65;44.42;;;8.90;99.90;;;;;;4855989;29;20057;-75
2024/01/26 00:50:14;;;;;;;84.07;42.30;;;9.00;99.90;;;;;;4856034;29;20045;-75
2024/01/26 00:52:40;;;;;;;86.32;47.47;;;9.00;99.90;;;;;;4848200;29;20094;-75
2024/01/26 00:55:06;;;;;;;81.55;46.83;;;8.90;99.90;;;;;;4845682;29;20407;-75
2024/01/26 00:57:31;;;;;;;85.45;46.83;;;9.00;99.90;;;;;;4865804;29;20541;-75
2024/01/26 00:59:59;;;;;;;83.80;45.30;;;9.00;99.90;;;;;;4852082;29;20037;-75
2024/01/26 01:02:25;;;;;;;83.72;45.90;;;9.00;99.90;;;;;;4867247;29;20060;-75
2024/01/26 01:04:51;;;;;;;82.82;45.50;;;9.00;99.90;;;;;;4857279;29;20072;-75
2024/01/26 01:07:16;;;;;;;75.38;43.45;;;9.00;99.90;;;;;;4856280;29;20078;-74
2024/01/26 01:09:42;;;;;;;78.95;45.15;;;9.00;99.90;;;;;;4844461;29;20056;-75
2024/01/26 01:12:08;;;;;;;79.00;45.92;;;9.00;99.90;;;;;;4863039;29;20049;-75
2024/01/26 01:14:36;;;;;;;84.43;46.58;;;9.00;99.90;;;;;;4857105;29;20034;-75
2024/01/26 01:17:04;;;;;;;89.57;48.92;;;9.00;99.90;;;;;;4860469;29;20045;-74
2024/01/26 01:19:30;;;;;;;81.50;46.20;;;9.00;99.90;;;;;;4857855;29;20046;-75
2024/01/26 01:21:56;;;;;;;75.45;44.50;;;9.10;99.90;;;;;;4856099;29;20076;-74
2024/01/26 01:24:23;;;;;;;83.18;46.47;;;9.00;99.90;;;;;;4852985;29;20065;-74
2024/01/26 01:26:49;;;;;;;79.45;45.85;;;9.10;99.90;;;;;;4886513;29;20141;-75
2024/01/26 01:29:14;;;;;;;81.65;47.58;;;9.10;99.90;;;;;;4872788;29;20107;-74
2024/01/26 01:31:40;;;;;;;82.85;46.63;;;9.10;99.90;;;;;;4888511;29;20045;-75
2024/01/26 01:34:05;;;;;;;84.00;45.92;;;9.10;99.90;;;;;;4858811;29;20038;-75
2024/01/26 01:36:31;;;;;;;75.45;45.33;;;9.10;99.90;;;;;;4851982;29;20567;-75
2024/01/26 01:38:57;;;;;;;72.60;45.22;;;9.10;99.90;;;;;;4856503;29;20053;-75
2024/01/26 01:41:22;;;;;;;74.00;45.22;;;9.10;99.90;;;;;;4845515;29;20099;-75
2024/01/26 01:43:57;;;;;;;74.82;46.60;;;9.10;99.90;;;;;;4861239;29;20049;-74
2024/01/26 01:46:23;;;;;;;78.45;46.22;;;9.20;99.90;;;;;;4844879;29;20045;-75
2024/01/26 01:48:50;;;;;;;80.93;47.13;;;9.00;99.90;;;;;;4864971;29;20096;-75
2024/01/26 01:51:16;;;;;;;72.53;46.53;;;9.10;99.90;;;;;;4874705;29;20049;-75
2024/01/26 01:53:42;;;;;;;85.47;47.15;;;9.20;99.90;;;;;;4847508;29;20445;-74
2024/01/26 01:56:11;;;;;;;76.22;47.30;;;9.20;99.90;;;;;;4880402;29;20068;-75
2024/01/26 01:58:41;;;;;;;75.72;46.92;;;9.20;99.90;;;;;;4859104;29;20064;-75
2024/01/26 02:01:07;;;;;;;74.55;47.03;;;9.20;99.90;;;;;;4867740;29;20477;-74
2024/01/26 02:03:33;;;;;;;77.22;45.30;;;9.30;99.90;;;;;;4864429;29;20045;-75
2024/01/26 02:05:58;;;;;;;75.38;45.90;;;9.20;99.90;;;;;;4857064;29;20067;-75
2024/01/26 02:08:24;;;;;;;72.05;46.75;;;9.30;99.90;;;;;;4849358;29;20068;-75
2024/01/26 02:10:50;;;;;;;74.22;45.58;;;9.30;99.90;;;;;;4848750;29;20075;-75
2024/01/26 02:13:16;;;;;;;70.32;45.28;;;9.30;99.90;;;;;;4876444;29;20045;-75
2024/01/26 02:15:41;;;;;;;67.70;45.10;;;9.30;99.90;;;;;;4852681;29;20046;-75
2024/01/26 02:18:07;;;;;;;71.75;47.67;;;9.20;99.90;;;;;;4843758;29;20046;-74
2024/01/26 02:20:33;;;;;;;67.68;46.25;;;9.30;99.90;;;;;;4861622;29;20129;-74
2024/01/26 02:22:58;;;;;;;71.70;48.17;;;9.20;99.90;;;;;;4854097;29;20148;-75
2024/01/26 02:25:24;;;;;;;77.22;48.65;;;9.30;99.90;;;;;;4886414;29;20383;-75
2024/01/26 02:27:53;;;;;;;81.20;49.65;;;9.30;99.90;;;;;;4878118;29;20053;-75
2024/01/26 02:30:19;;;;;;;80.03;51.03;;;9.30;99.90;;;;;;4853392;29;20104;-75
2024/01/26 02:32:44;;;;;;;75.40;49.30;;;9.30;99.90;;;;;;4852764;29;20049;-75
2024/01/26 02:35:11;;;;;;;77.10;50.15;;;9.40;99.90;;;;;;4848234;29;20049;-75
2024/01/26 02:37:37;;;;;;;71.53;48.75;;;9.30;99.90;;;;;;4850570;29;20050;-75
2024/01/26 02:40:03;;;;;;;75.97;47.92;;;9.30;99.90;;;;;;4846325;29;20055;-75
2024/01/26 02:42:28;;;;;;;75.47;47.72;;;9.40;99.90;;;;;;4877588;29;20516;-75
2024/01/26 02:44:54;;;;;;;65.47;46.80;;;9.40;99.90;;;;;;4862613;29;20056;-75
2024/01/26 02:47:20;;;;;;;70.03;46.10;;;9.40;99.90;;;;;;4863631;29;20169;-75
2024/01/26 02:49:45;;;;;;;64.70;44.85;;;9.40;99.90;;;;;;4861514;29;20064;-75
2024/01/26 02:52:11;;;;;;;71.47;46.58;;;9.40;99.90;;;;;;4879507;29;20155;-75
2024/01/26 02:54:37;;;;;;;63.55;44.45;;;9.30;99.90;;;;;;4890539;29;20775;-75
2024/01/26 02:57:02;;;;;;;59.50;42.50;;;9.40;99.90;;;;;;4870399;29;20041;-75
2024/01/26 02:59:28;;;;;;;57.55;41.95;;;9.40;99.90;;;;;;4882580;29;20682;-75
2024/01/26 03:01:54;;;;;;;60.08;43.70;;;9.40;99.90;;;;;;4866423;29;20093;-75
2024/01/26 03:04:20;;;;;;;55.72;43.28;;;9.40;99.90;;;;;;4856848;29;20413;-75
2024/01/26 03:06:46;;;;;;;60.58;43.55;;;9.40;99.90;;;;;;4855798;29;20045;-75
2024/01/26 03:09:12;;;;;;;56.33;41.10;;;9.40;99.90;;;;;;4847511;29;20401;-74
2024/01/26 03:11:39;;;;;;;55.55;40.88;;;9.40;99.90;;;;;;4851201;29;20033;-74
2024/01/26 03:14:06;;;;;;;54.28;41.95;;;9.40;99.90;;;;;;4894470;29;20052;-75
2024/01/26 03:16:33;;;;;;;50.40;40.70;;;9.40;99.90;;;;;;4868962;29;20063;-75
2024/01/26 03:18:58;;;;;;;51.55;41.78;;;9.30;99.90;;;;;;4867069;29;20049;-75
2024/01/26 03:21:24;;;;;;;57.65;40.60;;;9.40;99.90;;;;;;4882411;29;20045;-75
2024/01/26 03:23:49;;;;;;;49.80;39.75;;;9.40;99.90;;;;;;4872094;29;20052;-74
2024/01/26 03:26:15;;;;;;;50.00;39.20;;;9.50;99.90;;;;;;4882440;29;20052;-75
2024/01/26 03:28:41;;;;;;;47.70;38.25;;;9.50;99.90;;;;;;4858525;29;20040;-75
2024/01/26 03:31:06;;;;;;;46.13;38.05;;;9.50;99.90;;;;;;4881034;29;20975;-75
2024/01/26 03:33:32;;;;;;;51.17;38.92;;;9.50;99.90;;;;;;4876164;29;20049;-75
2024/01/26 03:35:58;;;;;;;49.72;38.78;;;9.50;99.90;;;;;;4877458;29;20180;-75
2024/01/26 03:38:23;;;;;;;49.15;38.88;;;9.50;99.90;;;;;;4875209;29;20067;-75
2024/01/26 03:40:49;;;;;;;49.63;39.30;;;9.50;99.90;;;;;;4847840;29;20064;-75
2024/01/26 03:43:14;;;;;;;48.30;39.15;;;9.50;99.90;;;;;;4862174;29;21924;-75
2024/01/26 03:45:40;;;;;;;46.42;37.97;;;9.50;99.90;;;;;;4881647;29;20606;-75
2024/01/26 03:48:06;;;;;;;50.10;38.33;;;9.50;99.90;;;;;;4871289;29;20053;-75
2024/01/26 03:50:32;;;;;;;48.90;38.10;;;9.50;99.90;;;;;;4883431;29;20085;-75
2024/01/26 03:52:57;;;;;;;44.10;37.03;;;9.50;99.90;;;;;;4856395;29;20049;-75
2024/01/26 03:55:23;;;;;;;41.15;35.42;;;9.50;99.90;;;;;;4888299;29;20100;-75
2024/01/26 03:57:49;;;;;;;46.28;36.40;;;9.60;99.90;;;;;;4854888;29;20120;-75
2024/01/26 04:00:15;;;;;;;43.60;35.88;;;9.60;99.90;;;;;;4880628;29;20052;-75
2024/01/26 04:02:41;;;;;;;43.40;35.78;;;9.60;99.90;;;;;;4858641;29;20534;-75
2024/01/26 04:05:06;;;;;;;41.78;34.47;;;9.60;99.90;;;;;;4862140;29;20053;-75
2024/01/26 04:07:32;;;;;;;46.53;36.40;;;9.60;99.90;;;;;;4858194;29;20045;-75
2024/01/26 04:09:58;;;;;;;42.63;35.28;;;9.60;99.90;;;;;;4850303;29;20097;-75
2024/01/26 04:12:24;;;;;;;40.55;34.88;;;9.60;99.90;;;;;;4879431;29;20056;-75
2024/01/26 04:14:49;;;;;;;43.20;34.58;;;9.60;99.90;;;;;;4865154;29;20045;-75
2024/01/26 04:17:15;;;;;;;39.10;33.55;;;9.60;99.90;;;;;;4879024;29;20478;-75
2024/01/26 04:19:41;;;;;;;39.63;32.78;;;9.70;99.90;;;;;;4894484;29;20528;-75
2024/01/26 04:22:06;;;;;;;43.15;34.20;;;9.60;99.90;;;;;;4858065;29;20498;-75
2024/01/26 04:24:34;;;;;;;39.95;32.75;;;9.60;99.90;;;;;;4853224;29;20768;-75
2024/01/26 04:27:00;;;;;;;39.85;34.95;;;9.70;99.90;;;;;;4871078;29;20080;-75
2024/01/26 04:29:26;;;;;;;42.58;34.45;;;9.70;99.90;;;;;;4875469;29;20140;-75
2024/01/26 04:31:52;;;;;;;39.40;33.83;;;9.70;99.90;;;;;;4885415;29;20442;-75
2024/01/26 04:34:17;;;;;;;37.53;33.25;;;9.80;99.90;;;;;;4875034;29;20048;-75
2024/01/26 04:36:47;;;;;;;42.40;35.50;;;9.70;99.90;;;;;;4851123;29;20046;-75
2024/01/26 04:39:14;;;;;;;41.03;34.17;;;9.80;99.90;;;;;;4859540;29;20045;-76
2024/01/26 04:41:43;;;;;;;42.53;34.05;;;9.80;99.90;;;;;;4848635;29;20072;-75
2024/01/26 04:44:09;;;;;;;42.67;35.75;;;9.80;99.90;;;;;;4863075;29;20075;-75
2024/01/26 04:46:36;;;;;;;43.08;36.22;;;9.80;99.90;;;;;;4889401;29;20052;-75
2024/01/26 04:49:02;;;;;;;44.15;38.17;;;9.80;99.90;;;;;;4869346;29;20049;-75
2024/01/26 04:51:28;;;;;;;40.53;36.03;;;9.80;99.90;;;;;;4868474;29;20037;-75
2024/01/26 04:53:53;;;;;;;44.50;35.85;;;9.90;99.90;;;;;;4873131;29;20063;-75
2024/01/26 04:56:21;;;;;;;44.05;36.83;;;9.90;99.90;;;;;;4890925;29;20060;-75
2024/01/26 04:58:47;;;;;;;41.65;36.72;;;9.80;99.90;;;;;;4881710;29;20061;-75
2024/01/26 05:01:13;;;;;;;41.22;35.55;;;9.90;99.90;;;;;;4862225;29;20053;-72
2024/01/26 05:03:38;;;;;;;41.58;36.65;;;9.90;99.90;;;;;;4861193;29;20061;-75
2024/01/26 05:06:06;;;;;;;41.33;35.72;;;9.90;99.90;;;;;;4876683;29;20051;-76
2024/01/26 05:08:32;;;;;;;38.85;34.47;;;9.90;99.90;;;;;;4871986;29;20052;-76
2024/01/26 05:10:57;;;;;;;39.50;35.20;;;10.00;99.90;;;;;;4863988;29;20401;-75
2024/01/26 05:13:23;;;;;;;40.28;34.03;;;10.00;99.90;;;;;;4852420;29;20128;-75
2024/01/26 05:15:48;;;;;;;37.83;33.58;;;10.00;99.90;;;;;;4858953;29;20132;-75
2024/01/26 05:18:14;;;;;;;35.92;32.13;;;10.00;99.90;;;;;;4879998;29;21039;-75
2024/01/26 05:20:40;;;;;;;36.17;32.20;;;10.00;99.90;;;;;;4884000;29;20049;-75
2024/01/26 05:23:06;;;;;;;36.78;31.50;;;10.00;99.90;;;;;;4853840;29;20053;-76
2024/01/26 05:25:31;;;;;;;34.95;31.15;;;10.00;99.90;;;;;;4861693;29;20052;-75
2024/01/26 05:27:58;;;;;;;33.88;30.35;;;10.00;99.90;;;;;;4871935;29;20053;-76
2024/01/26 05:30:24;;;;;;;34.63;28.92;;;10.00;99.90;;;;;;4857080;29;20048;-75
2024/01/26 05:32:49;;;;;;;34.55;28.95;;;10.10;99.90;;;;;;4850064;29;20449;-76
2024/01/26 05:35:15;;;;;;;33.15;29.08;;;10.00;99.90;;;;;;4860762;29;20132;-75
2024/01/26 05:37:41;;;;;;;34.25;30.10;;;10.10;99.90;;;;;;4872032;29;20120;-76
2024/01/26 05:40:07;;;;;;;32.03;28.63;;;10.10;99.90;;;;;;4868212;29;21775;-75
2024/01/26 05:42:33;;;;;;;31.92;27.80;;;10.10;99.90;;;;;;4857691;29;20133;-76
2024/01/26 05:45:00;;;;;;;30.42;27.20;;;10.10;99.90;;;;;;4875192;29;20216;-75
2024/01/26 05:47:25;;;;;;;30.00;26.80;;;10.10;99.90;;;;;;4853905;29;20139;-76
2024/01/26 05:49:51;;;;;;;31.25;27.05;;;10.10;99.90;;;;;;4855862;29;20179;-75
2024/01/26 05:52:17;;;;;;;30.00;26.05;;;10.20;99.90;;;;;;4893454;29;20049;-75
2024/01/26 05:54:42;;;;;;;29.45;25.83;;;10.20;99.90;;;;;;4853540;29;20496;-76
2024/01/26 05:57:08;;;;;;;31.48;26.60;;;10.20;99.90;;;;;;4846365;29;20045;-75
2024/01/26 05:59:37;;;;;;;28.05;25.08;;;10.20;99.90;;;;;;4875259;29;20061;-75
2024/01/26 06:02:03;;;;;;;27.90;24.83;;;10.20;99.90;;;;;;4862301;29;20094;-75
2024/01/26 06:04:31;;;;;;;28.63;25.38;;;10.20;99.90;;;;;;4894372;29;20049;-75
2024/01/26 06:06:57;;;;;;;28.77;24.90;;;10.20;99.90;;;;;;4880755;29;20049;-75
2024/01/26 06:09:23;;;;;;;27.77;24.45;;;10.20;99.90;;;;;;4850269;29;20061;-75
2024/01/26 06:11:48;;;;;;;27.10;23.65;;;10.20;99.90;;;;;;4852988;29;20045;-75
2024/01/26 06:14:14;;;;;;;27.52;22.98;;;10.30;99.90;;;;;;4899699;29;20816;-75
2024/01/26 06:16:39;;;;;;;26.00;23.08;;;10.30;99.90;;;;;;4875031;29;20041;-75
2024/01/26 06:19:05;;;;;;;25.92;22.05;;;10.30;99.90;;;;;;4876057;29;20159;-75
2024/01/26 06:21:31;;;;;;;24.38;21.90;;;10.30;99.90;;;;;;4894966;29;20660;-75
2024/01/26 06:23:56;;;;;;;25.52;22.38;;;10.30;99.90;;;;;;4902330;29;20056;-75
2024/01/26 06:26:23;;;;;;;26.20;21.92;;;10.30;99.90;;;;;;4868234;29;20041;-75
2024/01/26 06:28:49;;;;;;;24.60;21.58;;;10.30;99.90;;;;;;4873825;29;20061;-75
2024/01/26 06:31:14;;;;;;;22.95;20.52;;;10.40;99.90;;;;;;4857405;29;20053;-75
2024/01/26 06:33:40;;;;;;;22.58;20.17;;;10.40;99.90;;;;;;4882806;29;20429;-75
2024/01/26 06:36:06;;;;;;;23.02;20.63;;;10.40;99.90;;;;;;4861737;29;20409;-76
2024/01/26 06:38:32;;;;;;;23.35;20.65;;;10.40;99.90;;;;;;4898744;29;20057;-75
2024/01/26 06:40:59;;;;;;;23.50;20.92;;;10.40;99.90;;;;;;4861378;29;20056;-75
2024/01/26 06:43:25;;;;;;;22.80;20.40;;;10.40;99.90;;;;;;4862736;29;20060;-75
2024/01/26 06:45:50;;;;;;;22.50;19.98;;;10.40;99.90;;;;;;4902594;29;20378;-75
2024/01/26 06:48:16;;;;;;;22.30;20.00;;;10.40;99.90;;;;;;4860089;29;20052;-75
2024/01/26 06:50:42;;;;;;;22.02;19.63;;;10.40;99.90;;;;;;4878668;29;20042;-75
2024/01/26 06:53:09;;;;;;;21.48;19.27;;;10.40;99.90;;;;;;4845690;29;20445;-74
2024/01/26 06:55:34;;;;;;;22.98;20.60;;;10.40;99.90;;;;;;4872529;29;20132;-75
2024/01/26 06:58:00;;;;;;;22.90;19.27;;;10.40;99.90;;;;;;4879413;29;20197;-75
2024/01/26 07:00:27;;;;;;;21.02;18.45;;;10.40;99.90;;;;;;4869028;29;20378;-75
2024/01/26 07:02:53;;;;;;;21.20;18.95;;;10.40;99.90;;;;;;4868335;29;20604;-75
2024/01/26 07:05:19;;;;;;;22.50;19.13;;;10.40;99.90;;;;;;4852219;29;20049;-75
2024/01/26 07:07:44;;;;;;;19.70;17.70;;;10.40;99.90;;;;;;4861948;29;20481;-75
2024/01/26 07:10:10;;;;;;;20.40;18.10;;;10.40;99.90;;;;;;4855558;29;20135;-75
2024/01/26 07:12:36;;;;;;;19.63;17.60;;;10.40;99.90;;;;;;4852558;29;20174;-75
2024/01/26 07:15:01;;;;;;;20.05;17.98;;;10.40;99.90;;;;;;4864126;29;20505;-77
2024/01/26 07:17:27;;;;;;;19.48;17.58;;;10.40;99.90;;;;;;4896084;29;20048;-76
2024/01/26 07:19:53;;;;;;;19.77;17.77;;;10.40;99.90;;;;;;4883942;29;20120;-74
2024/01/26 07:22:19;;;;;;;20.10;18.00;;;10.40;99.90;;;;;;4866135;29;20044;-74
2024/01/26 07:24:44;;;;;;;19.58;17.65;;;10.40;99.90;;;;;;4887029;29;20132;-74
2024/01/26 07:27:10;;;;;;;19.40;17.40;;;10.40;99.90;;;;;;4861057;29;20060;-74
2024/01/26 07:29:35;;;;;;;20.15;17.98;;;10.40;99.90;;;;;;4859835;29;20064;-76
2024/01/26 07:32:01;;;;;;;22.20;19.90;;;10.40;99.90;;;;;;4862117;29;20034;-74
2024/01/26 07:34:27;;;;;;;21.08;18.98;;;10.40;99.90;;;;;;4866932;29;20044;-74
2024/01/26 07:36:52;;;;;;;22.23;19.92;;;10.40;99.90;;;;;;4885807;29;20092;-74
2024/01/26 07:39:19;;;;;;;20.23;17.98;;;10.40;99.90;;;;;;4862912;29;20048;-73
2024/01/26 07:41:45;;;;;;;22.33;19.85;;;10.40;99.90;;;;;;4862154;29;20061;-73
2024/01/26 07:44:10;;;;;;;20.10;17.95;;;10.40;99.90;;;;;;4860110;29;20053;-74
2024/01/26 07:46:41;;;;;;;19.85;18.00;;;10.40;99.90;;;;;;4852963;29;20492;-73
2024/01/26 07:49:06;;;;;;;19.00;17.00;;;10.40;99.90;;;;;;4854207;29;20068;-73
2024/01/26 07:51:32;;;;;;;18.83;16.98;;;10.40;99.90;;;;;;4867250;29;20049;-73
2024/01/26 07:53:58;;;;;;;17.42;15.82;;;10.40;99.90;;;;;;4859663;29;20601;-73
2024/01/26 07:56:23;;;;;;;17.00;15.40;;;10.40;99.90;;;;;;4857347;29;20073;-73
2024/01/26 07:58:49;;;;;;;16.83;15.23;;;10.40;99.90;;;;;;4875271;29;20060;-73
2024/01/26 08:01:14;;;;;;;16.27;14.75;;;10.40;99.90;;;;;;4875517;29;20048;-74
2024/01/26 08:03:40;;;;;;;15.90;14.27;;;10.40;99.90;;;;;;4853408;29;20045;-74
2024/01/26 08:06:07;;;;;;;16.08;14.43;;;10.40;99.90;;;;;;4858891;29;20055;-73
2024/01/26 08:08:32;;;;;;;16.10;14.50;;;10.40;99.90;;;;;;4856476;29;20054;-73
2024/01/26 08:10:58;;;;;;;14.73;13.32;;;10.40;99.90;;;;;;4854636;29;20052;-74
2024/01/26 08:13:23;;;;;;;14.82;13.35;;;10.50;99.90;;;;;;4859277;29;20520;-73
2024/01/26 08:15:49;;;;;;;15.73;14.20;;;10.40;99.90;;;;;;4875656;29;20057;-74
2024/01/26 08:18:15;;;;;;;14.32;12.82;;;10.50;99.90;;;;;;4855643;29;20052;-73
2024/01/26 08:20:40;;;;;;;15.23;13.63;;;10.50;99.90;;;;;;4858353;29;20525;-73
2024/01/26 08:23:06;;;;;;;14.52;13.13;;;10.50;99.90;;;;;;4861247;29;20042;-73
2024/01/26 08:25:32;;;;;;;15.05;13.48;;;10.50;99.90;;;;;;4860096;29;20033;-73
2024/01/26 08:27:57;;;;;;;14.15;12.75;;;10.50;99.90;;;;;;4854133;29;20129;-70
2024/01/26 08:30:23;;;;;;;14.10;12.60;;;10.50;99.90;;;;;;4857820;29;20112;-75
2024/01/26 08:32:50;;;;;;;13.68;12.35;;;10.50;99.90;;;;;;4869268;29;20143;-75
2024/01/26 08:35:16;;;;;;;14.18;12.77;;;10.50;99.90;;;;;;4858967;29;20045;-78
2024/01/26 08:37:42;;;;;;;13.00;11.80;;;10.50;99.90;;;;;;4871752;29;20045;-82
2024/01/26 08:40:12;;;;;;;13.05;11.75;;;10.50;99.90;;;;;;4870182;29;20044;-81
2024/01/26 08:42:38;;;;;;;13.10;11.80;;;10.50;99.90;;;;;;4858531;29;20113;-78
2024/01/26 08:45:04;;;;;;;14.90;13.05;;;10.60;99.90;;;;;;4886975;29;20060;-74
2024/01/26 08:47:30;;;;;;;12.88;11.68;;;10.50;99.90;;;;;;4873578;29;20045;-75
2024/01/26 08:49:55;;;;;;;12.80;11.60;;;10.50;99.90;;;;;;4859426;29;20524;-78
2024/01/26 08:52:21;;;;;;;13.15;11.80;;;10.60;99.90;;;;;;4858489;29;20413;-76
2024/01/26 08:54:47;;;;;;;13.07;11.77;;;10.60;99.90;;;;;;4876957;29;20048;-76
2024/01/26 08:57:13;;;;;;;12.20;11.00;;;10.60;99.90;;;;;;4848257;29;20061;-79
2024/01/26 08:59:40;;;;;;;11.68;10.52;;;10.60;99.90;;;;;;4860557;29;20069;-79
2024/01/26 09:02:07;;;;;;;11.88;10.68;;;10.60;99.90;;;;;;4852432;29;20053;-78
2024/01/26 09:04:32;;;;;;;11.38;10.32;;;10.60;99.90;;;;;;4864023;29;20053;-77
2024/01/26 09:06:58;;;;;;;11.75;10.55;;;10.70;99.90;;;;;;4846042;29;20554;-76
2024/01/26 09:09:24;;;;;;;11.15;9.95;;;10.60;99.90;;;;;;4866077;29;20067;-74
2024/01/26 09:11:51;;;;;;;11.40;10.30;;;10.60;99.90;;;;;;4863120;29;20081;-74
2024/01/26 09:14:17;;;;;;;12.20;10.25;;;10.70;99.90;;;;;;4873308;29;20821;-75
2024/01/26 09:16:43;;;;;;;11.32;10.23;;;10.60;99.90;;;;;;4866806;29;20045;-76
2024/01/26 09:19:10;;;;;;;11.18;10.07;;;10.70;99.90;;;;;;4863841;29;20052;-76
2024/01/26 09:21:36;;;;;;;11.60;10.40;;;10.80;99.90;;;;;;4866986;29;20098;-75
2024/01/26 09:24:02;;;;;;;11.02;10.02;;;10.80;99.90;;;;;;4861470;29;20037;-75
2024/01/26 09:26:28;;;;;;;12.07;10.88;;;10.90;99.90;;;;;;4869776;29;20085;-74
2024/01/26 09:28:53;;;;;;;12.45;11.25;;;10.90;99.90;;;;;;4860175;29;20041;-74
2024/01/26 09:31:19;;;;;;;12.30;11.00;;;10.90;99.90;;;;;;4868311;29;20061;-78
2024/01/26 09:33:45;;;;;;;12.63;11.32;;;11.00;99.90;;;;;;4841668;29;20417;-74
2024/01/26 09:36:10;;;;;;;12.15;10.95;;;11.00;99.90;;;;;;4856292;29;20624;-74
2024/01/26 09:38:36;;;;;;;11.23;10.10;;;11.00;99.90;;;;;;4856389;29;20132;-74
2024/01/26 09:41:02;;;;;;;11.43;10.27;;;11.00;99.90;;;;;;4882333;29;20480;-73
2024/01/26 09:43:27;;;;;;;10.93;9.90;;;11.00;99.90;;;;;;4861887;29;20523;-76
2024/01/26 09:45:53;;;;;;;10.90;9.45;;;11.00;99.90;;;;;;4862253;29;20060;-76
2024/01/26 09:48:20;;;;;;;9.93;8.88;;;11.00;99.90;;;;;;4856768;29;20083;-76
2024/01/26 09:50:56;;;;;;;6.82;4.80;;;11.00;99.90;;;;;;4862169;29;20041;-76
2024/01/26 09:53:23;;;;;;;5.07;2.08;;;11.10;99.90;;;;;;4849803;29;20061;-73
2024/01/26 09:55:51;;;;;;;2.33;0.80;;;11.00;99.90;;;;;;4872674;29;20043;-77
2024/01/26 09:58:16;;;;;;;;;;;10.50;99.90;;;;;;4869486;29;20087;-77
2024/01/26 10:00:46;;;;;;;2.63;1.02;;;10.00;99.90;;;;;;4869734;29;19984;-76
2024/01/26 10:03:12;;;;;;;3.95;1.35;;;9.80;99.90;;;;;;4865105;29;20041;-76
2024/01/26 10:05:38;;;;;;;2.63;0.80;;;9.70;99.90;;;;;;4855653;29;20207;-76
2024/01/26 10:08:10;;;;;;;3.40;1.00;;;9.60;99.90;;;;;;4851644;29;20522;-76
2024/01/26 10:10:37;;;;;;;1.92;1.08;;;9.60;99.90;;;;;;4879493;29;20127;-76
2024/01/26 10:13:08;;;;;;;1.73;0.98;;;9.60;99.90;;;;;;4862791;29;20044;-76
2024/01/26 10:15:34;;;;;;;4.53;1.27;;;9.70;99.90;;;;;;4862199;29;20155;-74
2024/01/26 10:18:01;;;;;;;4.45;0.93;;;9.70;99.90;;;;;;4870773;29;20528;-74
2024/01/26 10:20:26;;;;;;;3.65;1.20;;;9.70;99.90;;;;;;4867514;29;20847;-74
2024/01/26 10:22:52;;;;;;;3.63;1.15;;;9.70;99.90;;;;;;4852329;29;20125;-74
2024/01/26 10:25:18;;;;;;;4.28;1.17;;;9.70;99.90;;;;;;4853228;29;20059;-74
2024/01/26 10:27:44;;;;;;;5.25;1.13;;;9.60;99.90;;;;;;4859898;29;20038;-74
2024/01/26 10:30:11;;;;;;;3.95;1.20;;;9.60;99.90;;;;;;4859446;29;20053;-74
2024/01/26 10:32:37;;;;;;;5.53;1.17;;;9.50;99.90;;;;;;4863120;29;20037;-74
2024/01/26 10:35:04;;;;;;;7.10;1.35;;;9.50;99.90;;;;;;4847069;29;20132;-74
2024/01/26 10:37:35;;;;;;;7.20;1.42;;;9.40;99.90;;;;;;4867098;29;20046;-74
2024/01/26 10:40:04;;;;;;;7.47;1.80;;;9.40;99.90;;;;;;4878925;29;20674;-74
2024/01/26 10:42:30;;;;;;;8.40;1.70;;;9.40;99.90;;;;;;4863860;29;20064;-75
2024/01/26 10:44:58;;;;;;;9.38;1.58;;;9.30;99.90;;;;;;4865336;29;20512;-72
2024/01/26 10:47:25;;;;;;;8.20;1.85;;;9.30;99.90;;;;;;4858869;29;20108;-74
2024/01/26 10:49:54;;;;;;;11.45;1.88;;;9.30;99.90;;;;;;4868023;29;20041;-75
2024/01/26 10:52:20;;;;;;;8.18;2.00;;;9.30;99.90;;;;;;4870107;29;20120;-75
2024/01/26 10:54:47;;;;;;;12.05;2.40;;;9.30;99.90;;;;;;4863082;29;20057;-75
2024/01/26 10:57:14;;;;;;;12.45;2.72;;;9.30;99.90;;;;;;4883924;29;20493;-75
2024/01/26 10:59:41;;;;;;;12.10;2.50;;;9.20;99.90;;;;;;4850460;29;20058;-76
2024/01/26 11:02:13;;;;;;;11.70;2.53;;;9.20;99.90;;;;;;4872270;29;20049;-76
2024/01/26 11:04:44;;;;;;;13.25;2.83;;;9.20;99.90;;;;;;4858274;29;20053;-76
2024/01/26 11:07:10;;;;;;;13.93;2.67;;;9.30;99.90;;;;;;4861877;29;20128;-75
2024/01/26 11:09:41;;;;;;;14.57;3.15;;;9.20;99.90;;;;;;4854927;29;20194;-76
2024/01/26 11:12:19;;;;;;;19.27;3.90;;;9.10;99.90;;;;;;4853762;29;20084;-75
2024/01/26 11:14:47;;;;;;;14.48;3.45;;;9.10;99.90;;;;;;4868887;29;20053;-76
2024/01/26 11:17:12;;;;;;;14.73;3.72;;;9.10;99.90;;;;;;4878618;29;20052;-75
2024/01/26 11:19:38;;;;;;;13.98;3.05;;;9.10;99.90;;;;;;4877213;29;20041;-75
2024/01/26 11:22:07;;;;;;;17.80;3.72;;;9.10;99.90;;;;;;4872934;29;20696;-75
2024/01/26 11:24:34;;;;;;;20.05;3.95;;;9.10;99.90;;;;;;4853115;29;20049;-74
2024/01/26 11:27:02;;;;;;;16.13;3.27;;;9.10;99.90;;;;;;4871005;29;20053;-75
2024/01/26 11:29:32;;;;;;;16.38;3.35;;;9.10;99.90;;;;;;4874368;29;20077;-75
2024/01/26 11:31:58;;;;;;;16.58;3.38;;;9.00;99.90;;;;;;4853472;29;20058;-74
2024/01/26 11:34:23;;;;;;;16.92;4.00;;;9.00;99.90;;;;;;4879493;29;20129;-73
2024/01/26 11:37:06;;;;;;;17.35;3.45;;;9.00;99.90;;;;;;4858255;29;20174;-77
2024/01/26 11:39:32;;;;;;;19.42;3.83;;;9.10;99.90;;;;;;4899227;29;20048;-74
2024/01/26 11:41:58;;;;;;;20.93;4.20;;;9.00;99.90;;;;;;4871227;29;20054;-82
2024/01/26 11:44:30;;;;;;;17.52;3.72;;;9.00;99.90;;;;;;4876241;29;20049;-81
2024/01/26 11:46:56;;;;;;;14.10;3.72;;;8.90;99.90;;;;;;4854876;29;20060;-82
2024/01/26 11:49:21;;;;;;;16.17;3.70;;;8.90;99.90;;;;;;4854350;29;20064;-82
2024/01/26 11:51:48;;;;;;;19.88;4.03;;;8.80;99.90;;;;;;4854193;29;20600;-81
2024/01/26 11:54:15;;;;;;;18.45;4.50;;;8.80;99.90;;;;;;4873907;29;20048;-84
2024/01/26 11:56:41;;;;;;;19.90;5.80;;;8.80;99.90;;;;;;4873172;29;20081;-80
2024/01/26 11:59:08;;;;;;;17.05;4.50;;;8.80;99.90;;;;;;4893123;29;20128;-78
2024/01/26 12:01:33;;;;;;;20.07;4.57;;;8.80;99.90;;;;;;4882815;29;20518;-77
2024/01/26 12:04:02;;;;;;;19.13;4.22;;;8.70;99.90;;;;;;4856719;29;20289;-78
2024/01/26 12:06:28;;;;;;;20.73;4.32;;;8.70;99.90;;;;;;4861061;29;20105;-76
2024/01/26 12:08:55;;;;;;;15.57;3.58;;;8.70;99.90;;;;;;4875088;29;20493;-76
2024/01/26 12:11:21;;;;;;;18.23;4.20;;;8.70;99.90;;;;;;4861634;29;20046;-74
2024/01/26 12:13:48;;;;;;;17.83;4.25;;;8.70;99.90;;;;;;4876459;29;20072;-74
2024/01/26 12:16:14;;;;;;;16.25;4.10;;;8.60;99.90;;;;;;4840274;29;20073;-75
2024/01/26 12:18:43;;;;;;;17.73;4.00;;;8.60;99.90;;;;;;4855737;29;20057;-75
2024/01/26 12:21:09;;;;;;;14.32;3.65;;;8.60;99.90;;;;;;4850362;29;20049;-74
2024/01/26 12:23:34;;;;;;;16.08;4.07;;;8.60;99.90;;;;;;4855318;29;20682;-74
2024/01/26 12:26:00;;;;;;;18.90;3.90;;;8.70;99.90;;;;;;4842720;29;20052;-73
2024/01/26 12:28:27;;;;;;;18.63;4.43;;;8.60;99.90;;;;;;4859460;29;20041;-72
2024/01/26 12:30:53;;;;;;;17.95;3.88;;;8.60;99.90;;;;;;4873937;29;20053;-74